sensor_id;sensor_type;location;lat;lon;timestamp;pressure;altitude;pressure_sealevel;temperature;humidity
32735;BME280;19112;51.076;3.706;2023-02-22T00:01:53;100999.28;;;6.62;77.08
32735;BME280;19112;51.076;3.706;2023-02-22T00:04:42;101209.50;;;7.92;76.89
32735;BME280;19112;51.076;3.706;2023-02-22T00:07:08;101241.16;;;7.98;77.43
32735;BME280;19112;51.076;3.706;2023-02-22T00:09:34;101195.53;;;7.74;77.02
32735;BME280;19112;51.076;3.706;2023-02-22T00:12:00;101074.63;;;6.90;77.32
32735;BME280;19112;51.076;3.706;2023-02-22T00:14:26;101386.34;;;8.76;77.38
32735;BME280;19112;51.076;3.706;2023-02-22T00:16:52;101308.69;;;8.41;77.21
32735;BME280;19112;51.076;3.706;2023-02-22T00:19:21;101031.19;;;6.74;77.37
32735;BME280;19112;51.076;3.706;2023-02-22T00:21:51;101304.50;;;8.27;77.40
32735;BME280;19112;51.076;3.706;2023-02-22T00:24:18;101118.44;;;7.14;77.59
32735;BME280;19112;51.076;3.706;2023-02-22T00:26:54;101337.16;;;8.35;77.39
32735;BME280;19112;51.076;3.706;2023-02-22T00:29:21;101041.00;;;6.62;78.02
32735;BME280;19112;51.076;3.706;2023-02-22T00:31:47;101304.31;;;8.06;77.35
32735;BME280;19112;51.076;3.706;2023-02-22T00:34:13;101189.13;;;7.51;77.94
32735;BME280;19112;51.076;3.706;2023-02-22T00:36:46;101383.63;;;8.57;77.94
32735;BME280;19112;51.076;3.706;2023-02-22T00:39:12;101380.28;;;8.42;77.75
32735;BME280;19112;51.076;3.706;2023-02-22T00:41:38;101273.38;;;7.97;78.11
32735;BME280;19112;51.076;3.706;2023-02-22T00:44:04;101362.25;;;8.48;77.68
32735;BME280;19112;51.076;3.706;2023-02-22T00:46:29;101349.78;;;8.42;77.39
32735;BME280;19112;51.076;3.706;2023-02-22T00:48:55;101224.03;;;7.69;77.94
32735;BME280;19112;51.076;3.706;2023-02-22T00:51:24;101067.31;;;6.83;77.98
32735;BME280;19112;51.076;3.706;2023-02-22T00:54:08;101054.84;;;6.77;78.21
32735;BME280;19112;51.076;3.706;2023-02-22T00:56:42;101273.44;;;7.99;78.27
32735;BME280;19112;51.076;3.706;2023-02-22T00:59:08;101197.44;;;7.60;78.48
32735;BME280;19112;51.076;3.706;2023-02-22T01:01:34;101259.88;;;8.06;77.96
32735;BME280;19112;51.076;3.706;2023-02-22T01:04:00;101259.03;;;8.07;77.62
32735;BME280;19112;51.076;3.706;2023-02-22T01:06:25;100924.41;;;6.09;78.16
32735;BME280;19112;51.076;3.706;2023-02-22T01:08:51;101228.09;;;7.80;78.31
32735;BME280;19112;51.076;3.706;2023-02-22T01:11:17;101283.09;;;8.18;78.57
32735;BME280;19112;51.076;3.706;2023-02-22T01:13:43;101229.38;;;7.88;78.16
32735;BME280;19112;51.076;3.706;2023-02-22T01:16:10;101331.00;;;8.51;77.80
32735;BME280;19112;51.076;3.706;2023-02-22T01:18:36;101277.72;;;8.14;78.64
32735;BME280;19112;51.076;3.706;2023-02-22T01:21:05;101220.19;;;7.79;78.56
32735;BME280;19112;51.076;3.706;2023-02-22T01:23:33;101147.38;;;7.34;78.02
32735;BME280;19112;51.076;3.706;2023-02-22T01:25:59;101180.72;;;7.56;78.43
32735;BME280;19112;51.076;3.706;2023-02-22T01:28:25;101316.72;;;8.44;78.60
32735;BME280;19112;51.076;3.706;2023-02-22T01:30:51;101262.47;;;8.24;78.03
32735;BME280;19112;51.076;3.706;2023-02-22T01:33:17;101231.41;;;8.12;77.89
32735;BME280;19112;51.076;3.706;2023-02-22T01:35:43;101298.09;;;8.56;77.74
32735;BME280;19112;51.076;3.706;2023-02-22T01:38:10;101209.19;;;8.04;77.97
32735;BME280;19112;51.076;3.706;2023-02-22T01:40:39;101285.53;;;8.49;77.97
32735;BME280;19112;51.076;3.706;2023-02-22T01:43:28;101289.41;;;8.57;77.37
32735;BME280;19112;51.076;3.706;2023-02-22T01:46:00;101292.25;;;8.61;77.70
32735;BME280;19112;51.076;3.706;2023-02-22T01:48:30;101284.34;;;8.60;77.75
32735;BME280;19112;51.076;3.706;2023-02-22T01:53:54;101245.78;;;8.38;77.38
32735;BME280;19112;51.076;3.706;2023-02-22T01:56:23;101002.31;;;7.05;77.09
32735;BME280;19112;51.076;3.706;2023-02-22T01:59:05;101195.97;;;8.19;77.38
32735;BME280;19112;51.076;3.706;2023-02-22T02:01:31;101220.03;;;8.29;77.44
32735;BME280;19112;51.076;3.706;2023-02-22T02:04:03;101251.97;;;8.58;77.11
32735;BME280;19112;51.076;3.706;2023-02-22T02:06:32;101034.13;;;7.32;77.12
32735;BME280;19112;51.076;3.706;2023-02-22T02:11:52;101153.50;;;8.05;76.57
32735;BME280;19112;51.076;3.706;2023-02-22T02:14:18;100727.84;;;5.53;76.97
32735;BME280;19112;51.076;3.706;2023-02-22T02:16:51;101041.28;;;7.37;77.22
32735;BME280;19112;51.076;3.706;2023-02-22T02:19:48;101244.50;;;8.48;77.93
32735;BME280;19112;51.076;3.706;2023-02-22T02:26:03;101239.19;;;8.46;77.85
32735;BME280;19112;51.076;3.706;2023-02-22T02:41:20;101224.59;;;8.51;77.85
32735;BME280;19112;51.076;3.706;2023-02-22T02:44:12;101216.75;;;8.51;77.73
32735;BME280;19112;51.076;3.706;2023-02-22T02:46:54;101180.31;;;8.36;77.49
32735;BME280;19112;51.076;3.706;2023-02-22T02:49:47;101075.53;;;7.78;77.83
32735;BME280;19112;51.076;3.706;2023-02-22T02:52:18;101070.91;;;7.73;77.34
32735;BME280;19112;51.076;3.706;2023-02-22T02:54:46;100867.59;;;6.72;76.83
32735;BME280;19112;51.076;3.706;2023-02-22T02:57:13;101201.34;;;8.57;77.24
32735;BME280;19112;51.076;3.706;2023-02-22T02:59:39;101055.44;;;7.77;76.86
32735;BME280;19112;51.076;3.706;2023-02-22T03:02:42;101207.38;;;8.74;77.40
32735;BME280;19112;51.076;3.706;2023-02-22T03:05:41;101200.53;;;8.78;76.30
32735;BME280;19112;51.076;3.706;2023-02-22T03:08:47;101191.06;;;8.80;76.38
32735;BME280;19112;51.076;3.706;2023-02-22T03:11:22;101047.53;;;7.94;76.83
32735;BME280;19112;51.076;3.706;2023-02-22T03:17:24;101172.91;;;8.65;76.53
32735;BME280;19112;51.076;3.706;2023-02-22T03:23:39;101170.38;;;8.66;76.66
32735;BME280;19112;51.076;3.706;2023-02-22T03:26:21;101031.69;;;7.91;76.29
32735;BME280;19112;51.076;3.706;2023-02-22T03:28:53;101180.72;;;8.63;76.82
32735;BME280;19112;51.076;3.706;2023-02-22T03:31:30;101193.31;;;8.72;76.77
32735;BME280;19112;51.076;3.706;2023-02-22T03:34:04;101104.59;;;8.39;76.78
32735;BME280;19112;51.076;3.706;2023-02-22T03:36:37;101172.94;;;8.84;76.22
32735;BME280;19112;51.076;3.706;2023-02-22T03:39:10;101054.03;;;8.03;75.91
32735;BME280;19112;51.076;3.706;2023-02-22T03:41:46;101045.03;;;7.97;76.38
32735;BME280;19112;51.076;3.706;2023-02-22T03:44:17;101010.22;;;7.78;76.70
32735;BME280;19112;51.076;3.706;2023-02-22T03:47:22;101163.50;;;8.69;76.53
32735;BME280;19112;51.076;3.706;2023-02-22T03:50:16;101015.72;;;7.84;76.31
32735;BME280;19112;51.076;3.706;2023-02-22T03:52:43;101036.28;;;7.96;76.90
32735;BME280;19112;51.076;3.706;2023-02-22T03:55:14;101178.00;;;8.62;76.22
32735;BME280;19112;51.076;3.706;2023-02-22T03:57:56;100901.31;;;7.22;76.46
32735;BME280;19112;51.076;3.706;2023-02-22T04:00:31;101070.84;;;8.08;76.73
32735;BME280;19112;51.076;3.706;2023-02-22T04:03:01;101110.66;;;8.38;76.88
32735;BME280;19112;51.076;3.706;2023-02-22T04:05:33;100976.56;;;7.86;76.44
32735;BME280;19112;51.076;3.706;2023-02-22T04:08:06;101139.50;;;8.79;76.04
32735;BME280;19112;51.076;3.706;2023-02-22T04:10:34;101012.59;;;8.11;76.24
32735;BME280;19112;51.076;3.706;2023-02-22T04:13:03;100939.28;;;7.71;75.99
32735;BME280;19112;51.076;3.706;2023-02-22T04:15:47;100864.31;;;7.31;76.04
32735;BME280;19112;51.076;3.706;2023-02-22T04:18:18;100878.53;;;7.38;76.00
32735;BME280;19112;51.076;3.706;2023-02-22T04:20:44;101042.66;;;8.21;76.10
32735;BME280;19112;51.076;3.706;2023-02-22T04:23:24;100997.41;;;8.04;76.41
32735;BME280;19112;51.076;3.706;2023-02-22T04:25:57;100891.56;;;7.55;75.93
32735;BME280;19112;51.076;3.706;2023-02-22T04:28:25;100926.16;;;7.69;75.93
32735;BME280;19112;51.076;3.706;2023-02-22T04:31:05;101011.91;;;8.15;75.97
32735;BME280;19112;51.076;3.706;2023-02-22T04:33:32;101088.22;;;8.44;76.27
32735;BME280;19112;51.076;3.706;2023-02-22T04:35:57;100981.19;;;7.92;76.07
32735;BME280;19112;51.076;3.706;2023-02-22T04:38:42;101076.78;;;8.61;76.13
32735;BME280;19112;51.076;3.706;2023-02-22T04:41:17;101019.41;;;8.27;75.74
32735;BME280;19112;51.076;3.706;2023-02-22T04:43:59;101033.59;;;8.32;75.70
32735;BME280;19112;51.076;3.706;2023-02-22T04:46:42;101097.59;;;8.58;75.89
32735;BME280;19112;51.076;3.706;2023-02-22T04:55:46;101043.78;;;8.26;76.91
32735;BME280;19112;51.076;3.706;2023-02-22T04:58:15;101092.09;;;8.34;76.68
32735;BME280;19112;51.076;3.706;2023-02-22T05:00:42;101049.25;;;8.12;76.58
32735;BME280;19112;51.076;3.706;2023-02-22T05:03:11;101037.50;;;8.22;76.35
32735;BME280;19112;51.076;3.706;2023-02-22T05:05:37;101012.16;;;8.02;76.81
32735;BME280;19112;51.076;3.706;2023-02-22T05:08:34;101048.69;;;8.37;75.75
32735;BME280;19112;51.076;3.706;2023-02-22T05:11:09;100965.91;;;7.81;75.91
32735;BME280;19112;51.076;3.706;2023-02-22T05:13:56;100970.69;;;7.72;76.09
32735;BME280;19112;51.076;3.706;2023-02-22T05:16:25;101091.03;;;8.30;76.55
32735;BME280;19112;51.076;3.706;2023-02-22T05:18:58;101074.19;;;8.24;76.80
32735;BME280;19112;51.076;3.706;2023-02-22T05:21:27;100734.06;;;6.25;76.79
32735;BME280;19112;51.076;3.706;2023-02-22T05:23:58;100757.16;;;6.36;76.79
32735;BME280;19112;51.076;3.706;2023-02-22T05:26:24;101064.22;;;8.15;77.03
32735;BME280;19112;51.076;3.706;2023-02-22T05:29:12;100692.16;;;6.03;76.72
32735;BME280;19112;51.076;3.706;2023-02-22T05:32:08;100383.88;;;4.21;76.68
32735;BME280;19112;51.076;3.706;2023-02-22T05:34:40;101050.41;;;8.00;76.96
32735;BME280;19112;51.076;3.706;2023-02-22T05:37:10;100985.31;;;7.67;77.27
32735;BME280;19112;51.076;3.706;2023-02-22T05:39:39;101076.78;;;8.04;76.91
32735;BME280;19112;51.076;3.706;2023-02-22T05:42:11;100974.28;;;7.74;76.99
32735;BME280;19112;51.076;3.706;2023-02-22T05:44:38;101015.31;;;7.95;76.61
32735;BME280;19112;51.076;3.706;2023-02-22T05:47:04;100916.78;;;7.55;76.71
32735;BME280;19112;51.076;3.706;2023-02-22T05:49:42;100879.81;;;7.46;76.07
32735;BME280;19112;51.076;3.706;2023-02-22T05:52:13;100907.81;;;7.68;76.60
32735;BME280;19112;51.076;3.706;2023-02-22T05:55:18;101048.66;;;8.57;76.35
32735;BME280;19112;51.076;3.706;2023-02-22T05:57:46;100956.16;;;8.16;76.35
32735;BME280;19112;51.076;3.706;2023-02-22T06:00:56;101046.03;;;8.76;76.11
32735;BME280;19112;51.076;3.706;2023-02-22T06:03:22;100992.25;;;8.43;75.94
32735;BME280;19112;51.076;3.706;2023-02-22T06:06:42;101043.16;;;8.70;75.83
32735;BME280;19112;51.076;3.706;2023-02-22T06:09:19;101023.53;;;8.60;75.68
32735;BME280;19112;51.076;3.706;2023-02-22T06:11:50;101069.19;;;8.86;75.37
32735;BME280;19112;51.076;3.706;2023-02-22T06:14:39;101047.41;;;8.87;75.38
32735;BME280;19112;51.076;3.706;2023-02-22T06:17:13;100857.28;;;7.67;75.09
32735;BME280;19112;51.076;3.706;2023-02-22T06:19:42;101058.72;;;8.86;75.04
32735;BME280;19112;51.076;3.706;2023-02-22T06:22:27;100970.59;;;8.27;74.99
32735;BME280;19112;51.076;3.706;2023-02-22T06:25:05;101023.75;;;8.65;75.82
32735;BME280;19112;51.076;3.706;2023-02-22T06:27:47;100965.03;;;8.20;75.00
32735;BME280;19112;51.076;3.706;2023-02-22T06:30:16;100881.06;;;7.73;75.18
32735;BME280;19112;51.076;3.706;2023-02-22T06:32:49;100936.75;;;8.11;75.11
32735;BME280;19112;51.076;3.706;2023-02-22T06:35:16;100943.84;;;8.13;75.08
32735;BME280;19112;51.076;3.706;2023-02-22T06:37:46;100941.72;;;8.05;74.87
32735;BME280;19112;51.076;3.706;2023-02-22T06:40:13;101023.34;;;8.56;75.31
32735;BME280;19112;51.076;3.706;2023-02-22T06:42:40;100937.75;;;7.94;75.00
32735;BME280;19112;51.076;3.706;2023-02-22T06:45:07;101022.44;;;8.36;75.05
32735;BME280;19112;51.076;3.706;2023-02-22T06:47:40;100839.63;;;7.24;75.65
32735;BME280;19112;51.076;3.706;2023-02-22T06:50:23;100936.81;;;7.93;75.11
32735;BME280;19112;51.076;3.706;2023-02-22T06:52:49;100953.81;;;8.03;75.19
32735;BME280;19112;51.076;3.706;2023-02-22T06:55:19;100893.97;;;7.70;75.23
32735;BME280;19112;51.076;3.706;2023-02-22T06:57:45;101003.34;;;8.19;75.56
32735;BME280;19112;51.076;3.706;2023-02-22T07:00:11;101030.78;;;8.47;75.75
32735;BME280;19112;51.076;3.706;2023-02-22T07:02:37;100868.75;;;7.51;75.52
32735;BME280;19112;51.076;3.706;2023-02-22T07:05:03;101027.09;;;8.42;75.83
32735;BME280;19112;51.076;3.706;2023-02-22T07:07:30;100849.00;;;7.39;76.13
32735;BME280;19112;51.076;3.706;2023-02-22T07:09:56;100803.78;;;7.20;76.42
32735;BME280;19112;51.076;3.706;2023-02-22T07:12:23;100967.31;;;8.31;76.21
32735;BME280;19112;51.076;3.706;2023-02-22T07:14:54;100788.03;;;7.38;75.89
32735;BME280;19112;51.076;3.706;2023-02-22T07:17:20;100895.75;;;8.10;76.29
32735;BME280;19112;51.076;3.706;2023-02-22T07:19:49;101000.72;;;8.77;75.58
32735;BME280;19112;51.076;3.706;2023-02-22T07:22:21;101020.94;;;9.01;75.26
32735;BME280;19112;51.076;3.706;2023-02-22T07:24:47;101018.47;;;9.05;74.72
32735;BME280;19112;51.076;3.706;2023-02-22T07:27:13;100712.94;;;7.32;74.52
32735;BME280;19112;51.076;3.706;2023-02-22T07:29:42;100974.03;;;8.86;74.84
32735;BME280;19112;51.076;3.706;2023-02-22T07:32:08;100922.31;;;8.59;74.34
32735;BME280;19112;51.076;3.706;2023-02-22T07:34:39;100657.44;;;7.17;74.59
32735;BME280;19112;51.076;3.706;2023-02-22T07:37:06;100794.28;;;8.01;74.07
32735;BME280;19112;51.076;3.706;2023-02-22T07:39:33;100812.91;;;8.09;73.85
32735;BME280;19112;51.076;3.706;2023-02-22T07:42:00;100403.38;;;5.93;73.44
32735;BME280;19112;51.076;3.706;2023-02-22T07:44:27;101026.56;;;9.53;73.55
32735;BME280;19112;51.076;3.706;2023-02-22T07:46:53;100388.69;;;5.95;72.92
32735;BME280;19112;51.076;3.706;2023-02-22T07:49:19;100725.28;;;7.98;73.37
32735;BME280;19112;51.076;3.706;2023-02-22T07:51:45;101033.19;;;9.66;73.66
32735;BME280;19112;51.076;3.706;2023-02-22T07:54:11;100866.28;;;8.75;72.94
32735;BME280;19112;51.076;3.706;2023-02-22T07:56:36;100727.25;;;8.03;73.00
32735;BME280;19112;51.076;3.706;2023-02-22T07:59:08;100812.81;;;8.48;73.09
32735;BME280;19112;51.076;3.706;2023-02-22T08:01:34;101036.44;;;9.81;73.14
32735;BME280;19112;51.076;3.706;2023-02-22T08:03:59;100947.22;;;9.35;73.15
32735;BME280;19112;51.076;3.706;2023-02-22T08:06:26;101053.69;;;9.98;73.00
32735;BME280;19112;51.076;3.706;2023-02-22T08:08:53;101037.72;;;10.15;72.60
32735;BME280;19112;51.076;3.706;2023-02-22T08:11:19;100907.88;;;9.33;71.85
32735;BME280;19112;51.076;3.706;2023-02-22T08:13:45;100771.22;;;8.76;71.05
32735;BME280;19112;51.076;3.706;2023-02-22T08:16:11;100721.38;;;8.51;71.26
32735;BME280;19112;51.076;3.706;2023-02-22T08:18:36;100725.94;;;8.56;71.12
32735;BME280;19112;51.076;3.706;2023-02-22T08:21:03;100621.25;;;8.10;70.97
32735;BME280;19112;51.076;3.706;2023-02-22T08:23:29;101043.91;;;10.63;71.17
32735;BME280;19112;51.076;3.706;2023-02-22T08:25:56;100959.59;;;10.30;70.96
32735;BME280;19112;51.076;3.706;2023-02-22T08:28:23;101038.66;;;10.87;70.51
32735;BME280;19112;51.076;3.706;2023-02-22T08:30:50;100978.19;;;10.60;70.20
32735;BME280;19112;51.076;3.706;2023-02-22T08:33:17;100953.59;;;10.58;70.04
32735;BME280;19112;51.076;3.706;2023-02-22T08:35:45;100945.16;;;10.67;69.91
32735;BME280;19112;51.076;3.706;2023-02-22T08:38:28;101021.34;;;11.19;69.25
32735;BME280;19112;51.076;3.706;2023-02-22T08:40:56;100915.56;;;10.72;69.12
32735;BME280;19112;51.076;3.706;2023-02-22T08:43:22;100860.41;;;10.45;68.84
32735;BME280;19112;51.076;3.706;2023-02-22T08:45:49;100863.78;;;10.68;68.30
32735;BME280;19112;51.076;3.706;2023-02-22T08:48:16;100989.81;;;11.46;68.11
32735;BME280;19112;51.076;3.706;2023-02-22T08:50:43;100739.50;;;9.88;67.40
32735;BME280;19112;51.076;3.706;2023-02-22T08:53:10;100777.34;;;10.22;67.23
32735;BME280;19112;51.076;3.706;2023-02-22T08:55:38;100713.50;;;9.94;66.47
32735;BME280;19112;51.076;3.706;2023-02-22T08:58:05;101046.47;;;11.65;66.65
32735;BME280;19112;51.076;3.706;2023-02-22T09:00:34;100733.09;;;10.06;66.76
32735;BME280;19112;51.076;3.706;2023-02-22T09:03:02;100830.34;;;10.63;66.23
32735;BME280;19112;51.076;3.706;2023-02-22T09:05:29;101038.09;;;11.77;66.17
32735;BME280;19112;51.076;3.706;2023-02-22T09:07:55;100737.78;;;10.14;66.42
32735;BME280;19112;51.076;3.706;2023-02-22T09:10:25;101026.28;;;11.91;66.22
32735;BME280;19112;51.076;3.706;2023-02-22T09:12:52;100893.56;;;11.23;66.15
32735;BME280;19112;51.076;3.706;2023-02-22T09:15:21;100729.16;;;10.44;66.02
32735;BME280;19112;51.076;3.706;2023-02-22T09:17:47;101006.88;;;12.16;65.53
32735;BME280;19112;51.076;3.706;2023-02-22T09:20:17;100956.22;;;11.93;65.33
32735;BME280;19112;51.076;3.706;2023-02-22T09:22:47;101041.19;;;12.51;65.39
32735;BME280;19112;51.076;3.706;2023-02-22T09:25:15;100982.59;;;12.26;64.73
32735;BME280;19112;51.076;3.706;2023-02-22T09:27:41;101030.09;;;12.61;64.58
32735;BME280;19112;51.076;3.706;2023-02-22T09:30:15;101034.00;;;12.75;64.39
32735;BME280;19112;51.076;3.706;2023-02-22T09:32:42;101034.19;;;12.83;64.42
32735;BME280;19112;51.076;3.706;2023-02-22T09:35:08;100840.97;;;11.82;63.83
32735;BME280;19112;51.076;3.706;2023-02-22T09:37:34;101027.59;;;12.99;63.72
32735;BME280;19112;51.076;3.706;2023-02-22T09:40:00;100736.28;;;11.37;63.39
32735;BME280;19112;51.076;3.706;2023-02-22T09:42:42;101027.06;;;13.12;63.71
32735;BME280;19112;51.076;3.706;2023-02-22T09:45:31;100958.75;;;12.87;63.57
32735;BME280;19112;51.076;3.706;2023-02-22T09:48:04;100911.66;;;12.64;63.12
32735;BME280;19112;51.076;3.706;2023-02-22T09:50:37;100927.25;;;12.91;63.05
32735;BME280;19112;51.076;3.706;2023-02-22T09:55:53;100788.69;;;12.27;62.77
32735;BME280;19112;51.076;3.706;2023-02-22T09:58:29;100571.34;;;10.95;62.33
32735;BME280;19112;51.076;3.706;2023-02-22T10:04:24;100769.41;;;12.28;62.50
32735;BME280;19112;51.076;3.706;2023-02-22T10:07:25;100791.13;;;12.54;62.50
32735;BME280;19112;51.076;3.706;2023-02-22T10:09:56;101030.03;;;13.98;61.94
32735;BME280;19112;51.076;3.706;2023-02-22T10:15:39;100984.25;;;13.96;61.80
32735;BME280;19112;51.076;3.706;2023-02-22T10:21:23;101023.94;;;14.43;61.32
32735;BME280;19112;51.076;3.706;2023-02-22T10:24:43;100887.69;;;13.63;61.34
32735;BME280;19112;51.076;3.706;2023-02-22T10:27:39;100946.44;;;13.97;61.40
32735;BME280;19112;51.076;3.706;2023-02-22T10:30:23;100885.88;;;13.62;61.45
32735;BME280;19112;51.076;3.706;2023-02-22T10:33:14;100977.00;;;14.28;61.54
32735;BME280;19112;51.076;3.706;2023-02-22T10:35:52;100998.44;;;14.45;61.40
32735;BME280;19112;51.076;3.706;2023-02-22T10:38:31;100878.16;;;13.72;61.28
32735;BME280;19112;51.076;3.706;2023-02-22T10:41:26;101001.97;;;14.44;61.22
32735;BME280;19112;51.076;3.706;2023-02-22T10:43:52;100959.97;;;14.14;61.28
32735;BME280;19112;51.076;3.706;2023-02-22T10:46:20;100966.22;;;14.19;61.49
32735;BME280;19112;51.076;3.706;2023-02-22T10:48:51;100797.25;;;13.28;61.48
32735;BME280;19112;51.076;3.706;2023-02-22T10:51:19;100720.63;;;12.81;61.30
32735;BME280;19112;51.076;3.706;2023-02-22T10:54:08;100904.25;;;14.00;61.33
32735;BME280;19112;51.076;3.706;2023-02-22T10:56:53;100895.06;;;13.80;61.53
32735;BME280;19112;51.076;3.706;2023-02-22T11:01:56;100913.88;;;13.97;61.27
32735;BME280;19112;51.076;3.706;2023-02-22T11:04:22;100837.38;;;13.56;61.59
32735;BME280;19112;51.076;3.706;2023-02-22T11:07:08;100921.66;;;13.91;61.89
32735;BME280;19112;51.076;3.706;2023-02-22T11:10:01;101001.75;;;14.33;61.83
32735;BME280;19112;51.076;3.706;2023-02-22T11:12:41;101036.84;;;14.70;61.74
32735;BME280;19112;51.076;3.706;2023-02-22T11:15:26;101037.00;;;14.78;61.67
32735;BME280;19112;51.076;3.706;2023-02-22T11:17:56;101037.88;;;14.78;61.48
32735;BME280;19112;51.076;3.706;2023-02-22T11:20:29;100968.75;;;14.55;61.07
32735;BME280;19112;51.076;3.706;2023-02-22T11:23:02;101039.06;;;14.94;61.08
32735;BME280;19112;51.076;3.706;2023-02-22T11:25:35;100996.28;;;14.70;61.01
32735;BME280;19112;51.076;3.706;2023-02-22T11:28:10;100933.22;;;14.42;60.68
32735;BME280;19112;51.076;3.706;2023-02-22T11:30:41;100938.56;;;14.44;60.93
32735;BME280;19112;51.076;3.706;2023-02-22T11:35:53;100772.41;;;13.59;61.00
32735;BME280;19112;51.076;3.706;2023-02-22T11:41:12;101035.81;;;15.10;60.89
32735;BME280;19112;51.076;3.706;2023-02-22T11:43:47;101026.72;;;14.93;60.90
32735;BME280;19112;51.076;3.706;2023-02-22T11:46:24;100886.31;;;14.28;61.18
32735;BME280;19112;51.076;3.706;2023-02-22T11:49:03;100994.13;;;14.96;60.69
32735;BME280;19112;51.076;3.706;2023-02-22T11:58:19;101028.03;;;15.18;60.57
32735;BME280;19112;51.076;3.706;2023-02-22T12:09:32;100860.13;;;14.40;60.36
32735;BME280;19112;51.076;3.706;2023-02-22T12:18:03;100984.00;;;15.22;59.89
32735;BME280;19112;51.076;3.706;2023-02-22T12:20:50;100987.22;;;15.02;60.47
32735;BME280;19112;51.076;3.706;2023-02-22T12:29:17;100888.78;;;14.19;61.37
32735;BME280;19112;51.076;3.706;2023-02-22T12:31:55;100881.22;;;13.92;61.86
32735;BME280;19112;51.076;3.706;2023-02-22T12:34:44;100875.03;;;13.91;62.08
32735;BME280;19112;51.076;3.706;2023-02-22T12:37:23;100895.28;;;13.92;62.43
32735;BME280;19112;51.076;3.706;2023-02-22T12:51:45;101042.13;;;14.28;63.62
32735;BME280;19112;51.076;3.706;2023-02-22T12:54:22;101046.44;;;14.24;63.93
32735;BME280;19112;51.076;3.706;2023-02-22T12:57:13;101053.22;;;14.11;64.45
32735;BME280;19112;51.076;3.706;2023-02-22T12:59:58;100730.19;;;12.02;64.71
32735;BME280;19112;51.076;3.706;2023-02-22T13:05:58;100910.06;;;13.05;65.57
32735;BME280;19112;51.076;3.706;2023-02-22T13:08:31;101004.91;;;13.39;66.35
32735;BME280;19112;51.076;3.706;2023-02-22T13:16:46;100790.72;;;12.37;66.63
32735;BME280;19112;51.076;3.706;2023-02-22T13:19:37;100989.13;;;13.40;66.53
32735;BME280;19112;51.076;3.706;2023-02-22T13:36:47;100905.19;;;12.86;68.13
32735;BME280;19112;51.076;3.706;2023-02-22T13:39:32;101009.34;;;13.41;68.27
32735;BME280;19112;51.076;3.706;2023-02-22T13:48:06;101056.56;;;13.67;69.64
32735;BME280;19112;51.076;3.706;2023-02-22T13:53:22;101058.78;;;13.48;70.71
32735;BME280;19112;51.076;3.706;2023-02-22T13:55:57;100917.97;;;12.71;70.98
32735;BME280;19112;51.076;3.706;2023-02-22T13:58:25;100999.69;;;13.07;71.21
32735;BME280;19112;51.076;3.706;2023-02-22T14:00:58;100853.56;;;12.25;71.54
32735;BME280;19112;51.076;3.706;2023-02-22T14:03:31;101060.41;;;13.43;72.12
32735;BME280;19112;51.076;3.706;2023-02-22T14:06:02;101054.38;;;13.49;71.97
32735;BME280;19112;51.076;3.706;2023-02-22T14:16:24;101024.78;;;13.26;72.90
32735;BME280;19112;51.076;3.706;2023-02-22T14:19:04;101054.53;;;13.55;72.85
32735;BME280;19112;51.076;3.706;2023-02-22T14:21:32;101057.16;;;13.53;72.99
32735;BME280;19112;51.076;3.706;2023-02-22T14:24:11;100910.03;;;12.69;73.27
32735;BME280;19112;51.076;3.706;2023-02-22T14:26:39;100976.88;;;13.09;73.20
32735;BME280;19112;51.076;3.706;2023-02-22T14:34:15;101059.94;;;13.61;72.99
32735;BME280;19112;51.076;3.706;2023-02-22T14:36:55;101052.97;;;13.63;73.24
32735;BME280;19112;51.076;3.706;2023-02-22T14:39:38;101069.66;;;13.62;73.17
32735;BME280;19112;51.076;3.706;2023-02-22T14:42:32;101059.22;;;13.67;73.20
32735;BME280;19112;51.076;3.706;2023-02-22T14:50:59;100991.84;;;13.10;73.82
32735;BME280;19112;51.076;3.706;2023-02-22T14:53:52;100984.00;;;13.11;73.29
32735;BME280;19112;51.076;3.706;2023-02-22T15:02:50;100983.56;;;13.28;73.30
32735;BME280;19112;51.076;3.706;2023-02-22T15:05:21;101015.47;;;13.39;73.04
32735;BME280;19112;51.076;3.706;2023-02-22T15:07:54;100985.34;;;13.29;73.05
32735;BME280;19112;51.076;3.706;2023-02-22T15:10:30;100826.75;;;12.40;72.93
32735;BME280;19112;51.076;3.706;2023-02-22T15:13:05;101054.28;;;13.82;72.67
32735;BME280;19112;51.076;3.706;2023-02-22T15:15:47;100986.41;;;13.37;72.44
32735;BME280;19112;51.076;3.706;2023-02-22T15:18:33;100931.81;;;12.98;72.45
32735;BME280;19112;51.076;3.706;2023-02-22T15:21:15;101039.69;;;13.58;72.43
32735;BME280;19112;51.076;3.706;2023-02-22T15:23:48;100983.53;;;13.26;72.49
32735;BME280;19112;51.076;3.706;2023-02-22T15:29:00;100995.09;;;13.33;72.48
32735;BME280;19112;51.076;3.706;2023-02-22T15:31:36;100921.09;;;12.91;72.29
32735;BME280;19112;51.076;3.706;2023-02-22T15:36:44;100789.13;;;12.09;72.08
32735;BME280;19112;51.076;3.706;2023-02-22T15:39:37;101045.59;;;13.48;71.99
32735;BME280;19112;51.076;3.706;2023-02-22T15:42:16;101076.88;;;13.69;72.02
32735;BME280;19112;51.076;3.706;2023-02-22T15:44:53;101014.19;;;13.23;71.78
32735;BME280;19112;51.076;3.706;2023-02-22T15:47:25;100914.56;;;12.75;71.59
32735;BME280;19112;51.076;3.706;2023-02-22T15:53:25;101078.16;;;13.50;71.79
32735;BME280;19112;51.076;3.706;2023-02-22T15:55:58;101014.38;;;12.97;71.65
32735;BME280;19112;51.076;3.706;2023-02-22T15:58:26;101015.19;;;12.95;71.42
32735;BME280;19112;51.076;3.706;2023-02-22T16:01:06;101019.63;;;12.96;71.38
32735;BME280;19112;51.076;3.706;2023-02-22T16:03:47;101038.53;;;13.14;71.60
32735;BME280;19112;51.076;3.706;2023-02-22T16:09:09;101014.25;;;12.93;71.30
32735;BME280;19112;51.076;3.706;2023-02-22T16:11:39;101058.03;;;13.21;70.84
32735;BME280;19112;51.076;3.706;2023-02-22T16:17:26;101079.88;;;13.48;70.59